createdAt,value
2016-05-30T00:00:27.935Z,0
2016-05-30T00:01:27.984Z,0
2016-05-30T00:02:28.002Z,0
2016-05-30T00:03:27.724Z,0
2016-05-30T00:04:27.867Z,0
2016-05-30T00:05:28.074Z,0
2016-05-30T00:06:29.091Z,0
2016-05-30T00:07:28.454Z,0
2016-05-30T00:08:28.143Z,0
2016-05-30T00:09:28.115Z,0
2016-05-30T00:10:27.993Z,0
2016-05-30T00:11:28.168Z,0
2016-05-30T00:12:28.201Z,0
2016-05-30T00:13:28.220Z,0
2016-05-30T00:14:27.926Z,0
2016-05-30T00:15:28.568Z,0
2016-05-30T00:16:28.134Z,0
2016-05-30T00:18:28.342Z,0
2016-05-30T00:19:28.189Z,0
2016-05-30T00:20:28.364Z,0
2016-05-30T00:21:29.287Z,0
2016-05-30T00:22:29.572Z,0
2016-05-30T00:23:28.450Z,0
2016-05-30T00:24:42.517Z,0
2016-05-30T00:25:28.455Z,0
2016-05-30T00:26:28.504Z,0
2016-05-30T00:27:28.522Z,0
2016-05-30T00:28:28.354Z,0
2016-05-30T00:30:28.578Z,0
2016-05-30T00:31:28.596Z,0
2016-05-30T00:32:28.599Z,0
2016-05-30T00:33:28.476Z,0
2016-05-30T00:34:28.635Z,0
2016-05-30T00:35:28.669Z,0
2016-05-30T00:36:29.016Z,0
2016-05-30T00:37:42.787Z,0
2016-05-30T00:38:28.724Z,0
2016-05-30T00:39:28.742Z,0
2016-05-30T00:40:28.777Z,0
2016-05-30T00:41:28.796Z,0
2016-05-30T00:42:28.829Z,0
2016-05-30T00:43:28.691Z,0
2016-05-30T00:44:28.849Z,0
2016-05-30T00:45:28.868Z,0
2016-05-30T00:46:28.902Z,0
2016-05-30T00:47:28.608Z,0
2016-05-30T00:48:28.923Z,0
2016-05-30T00:49:28.942Z,0
2016-05-30T00:50:28.976Z,0
2016-05-30T00:51:29.806Z,0
2016-05-30T00:52:29.075Z,0
2016-05-30T00:53:29.045Z,0
2016-05-30T00:54:29.064Z,0
2016-05-30T00:55:29.098Z,0
2016-05-30T00:56:29.117Z,0
2016-05-30T00:57:28.978Z,0
2016-05-30T00:58:29.137Z,0
2016-05-30T00:59:29.172Z,0
2016-05-30T01:00:29.189Z,0
2016-05-30T01:01:29.224Z,0
2016-05-30T01:02:29.210Z,0
2016-05-30T01:03:29.072Z,0
2016-05-30T01:04:29.278Z,0
2016-05-30T01:05:29.297Z,0
2016-05-30T01:06:29.955Z,0
2016-05-30T01:07:57.461Z,0
2016-05-30T01:08:29.352Z,0
2016-05-30T01:09:29.354Z,0
2016-05-30T01:10:29.373Z,0
2016-05-30T01:11:29.406Z,0
2016-05-30T01:12:29.409Z,0
2016-05-30T01:13:29.443Z,0
2016-05-30T01:14:29.477Z,0
2016-05-30T01:15:29.495Z,0
2016-05-30T01:16:29.202Z,0
2016-05-30T01:17:29.548Z,0
2016-05-30T01:18:43.615Z,0
2016-05-30T01:19:29.584Z,0
2016-05-30T01:20:29.446Z,0
2016-05-30T01:21:29.903Z,0
2016-05-30T01:22:29.859Z,0
2016-05-30T01:23:43.723Z,0
2016-05-30T01:24:29.676Z,0
2016-05-30T01:25:29.804Z,0
2016-05-30T01:26:29.729Z,0
2016-05-30T01:27:29.434Z,0
2016-05-30T01:28:29.750Z,0
2016-05-30T01:29:29.799Z,0
2016-05-30T01:30:29.817Z,0
2016-05-30T01:31:29.836Z,0
2016-05-30T01:32:29.666Z,0
2016-05-30T01:33:29.716Z,0
2016-05-30T01:34:29.874Z,0
2016-05-30T01:35:29.909Z,0
2016-05-30T01:36:29.489Z,0
2016-05-30T01:37:43.994Z,0
2016-05-30T01:38:29.963Z,0
2016-05-30T01:39:29.982Z,0
2016-05-30T01:40:44.082Z,0
2016-05-30T01:41:44.068Z,0
2016-05-30T01:42:29.896Z,0
2016-05-30T01:43:43.980Z,0
2016-05-30T01:44:29.933Z,0
2016-05-30T01:45:29.951Z,0
2016-05-30T01:46:30.141Z,0
2016-05-30T01:47:30.143Z,0
2016-05-30T01:48:30.178Z,0
2016-05-30T01:49:30.181Z,0
2016-05-30T01:51:30.514Z,0
2016-05-30T01:52:30.876Z,0
2016-05-30T01:53:30.285Z,0
2016-05-30T01:54:30.303Z,0
2016-05-30T01:55:30.150Z,0
2016-05-30T01:56:30.339Z,0
2016-05-30T01:57:44.408Z,0
2016-05-30T01:58:30.377Z,0
2016-05-30T01:59:30.395Z,0
2016-05-30T02:00:44.495Z,0
2016-05-30T02:01:30.432Z,0
2016-05-30T02:02:30.481Z,0
2016-05-30T02:03:30.327Z,0
2016-05-30T02:04:30.189Z,0
2016-05-30T02:05:30.380Z,0
2016-05-30T02:06:45.277Z,0
2016-05-30T02:07:31.120Z,0
2016-05-30T02:08:30.592Z,0
2016-05-30T02:09:30.593Z,0
2016-05-30T02:10:30.628Z,0
2016-05-30T02:11:30.646Z,0
2016-05-30T02:12:30.665Z,0
2016-05-30T02:13:30.668Z,0
2016-05-30T02:14:44.751Z,0
2016-05-30T02:15:31.313Z,0
2016-05-30T02:16:30.754Z,0
2016-05-30T02:17:30.960Z,0
2016-05-30T02:18:30.790Z,0
2016-05-30T02:19:31.027Z,0
2016-05-30T02:20:30.358Z,0
2016-05-30T02:21:30.860Z,0
2016-05-30T02:22:30.692Z,0
2016-05-30T02:23:44.947Z,0
2016-05-30T02:24:30.900Z,0
2016-05-30T02:25:30.903Z,0
2016-05-30T02:27:31.142Z,0
2016-05-30T02:29:30.836Z,0
2016-05-30T02:30:45.059Z,0
2016-05-30T02:31:31.044Z,0
2016-05-30T02:32:30.905Z,0
2016-05-30T02:33:31.097Z,0
2016-05-30T02:34:31.099Z,0
2016-05-30T02:35:31.117Z,0
2016-05-30T02:36:45.263Z,0
2016-05-30T02:37:31.997Z,0
2016-05-30T02:38:31.156Z,0
2016-05-30T02:39:31.218Z,0
2016-05-30T02:40:31.264Z,0
2016-05-30T02:41:31.324Z,0
2016-05-30T02:42:31.354Z,0
2016-05-30T02:43:31.415Z,0
2016-05-30T02:44:31.421Z,0
2016-05-30T02:45:31.481Z,0
2016-05-30T02:46:31.508Z,0
2016-05-30T02:47:31.520Z,4
2016-05-30T02:48:45.636Z,4
2016-05-30T02:49:31.589Z,4
2016-05-30T02:50:31.438Z,0
2016-05-30T02:51:31.820Z,0
2016-05-30T02:52:31.654Z,0
2016-05-30T02:53:31.691Z,4
2016-05-30T02:54:31.696Z,4
2016-05-30T02:55:45.798Z,0
2016-05-30T02:56:31.579Z,4
2016-05-30T02:57:31.740Z,4
2016-05-30T02:58:31.790Z,4
2016-05-30T02:59:31.809Z,4
2016-05-30T03:00:31.813Z,8
2016-05-30T03:01:31.864Z,4
2016-05-30T03:02:31.882Z,12
2016-05-30T03:03:31.901Z,12
2016-05-30T03:04:31.920Z,8
2016-05-30T03:05:31.751Z,12
2016-05-30T03:06:31.957Z,12
2016-05-30T03:07:31.975Z,12
2016-05-30T03:08:31.977Z,20
2016-05-30T03:09:31.871Z,20
2016-05-30T03:10:46.095Z,24
2016-05-30T03:11:31.923Z,24
2016-05-30T03:12:32.067Z,32
2016-05-30T03:13:31.944Z,36
2016-05-30T03:15:32.122Z,32
2016-05-30T03:16:32.140Z,32
2016-05-30T03:17:32.174Z,36
2016-05-30T03:18:32.036Z,36
2016-05-30T03:19:32.225Z,40
2016-05-30T03:20:32.244Z,40
2016-05-30T03:21:32.435Z,44
2016-05-30T03:22:32.405Z,44
2016-05-30T03:23:32.315Z,52
2016-05-30T03:24:32.161Z,56
2016-05-30T03:25:32.352Z,60
2016-05-30T03:26:32.369Z,64
2016-05-30T03:27:32.371Z,68
2016-05-30T03:28:32.422Z,68
2016-05-30T03:29:32.424Z,72
2016-05-30T03:30:32.443Z,76
2016-05-30T03:31:32.476Z,84
2016-05-30T03:32:46.545Z,96
2016-05-30T03:33:32.498Z,100
2016-05-30T03:34:32.719Z,112
2016-05-30T03:35:32.550Z,120
2016-05-30T03:36:32.834Z,124
2016-05-30T03:37:33.056Z,128
2016-05-30T03:38:32.809Z,136
2016-05-30T03:39:46.688Z,140
2016-05-30T03:40:32.641Z,144
2016-05-30T03:41:32.676Z,144
2016-05-30T03:42:32.679Z,148
2016-05-30T03:43:32.712Z,164
2016-05-30T03:44:32.575Z,180
2016-05-30T03:45:32.578Z,184
2016-05-30T03:46:32.595Z,176
2016-05-30T03:47:32.786Z,180
2016-05-30T03:48:32.788Z,188
2016-05-30T03:49:32.806Z,192
2016-05-30T03:50:41.856Z,204
2016-05-30T03:51:32.766Z,208
2016-05-30T03:52:32.924Z,204
2016-05-30T03:53:32.927Z,204
2016-05-30T03:54:32.757Z,204
2016-05-30T03:55:32.947Z,204
2016-05-30T03:56:32.810Z,208
2016-05-30T03:57:32.985Z,212
2016-05-30T03:58:33.002Z,216
2016-05-30T03:59:47.086Z,212
2016-05-30T04:00:33.055Z,212
2016-05-30T04:01:33.088Z,196
2016-05-30T04:02:36.123Z,188
2016-05-30T04:03:32.953Z,192
2016-05-30T04:04:33.144Z,196
2016-05-30T04:05:33.178Z,192
2016-05-30T04:06:33.587Z,180
2016-05-30T04:07:33.839Z,176
2016-05-30T04:08:33.201Z,188
2016-05-30T04:09:33.235Z,192
2016-05-30T04:10:33.223Z,196
2016-05-30T04:11:33.257Z,196
2016-05-30T04:12:47.370Z,184
2016-05-30T04:13:33.308Z,184
2016-05-30T04:14:33.343Z,188
2016-05-30T04:15:33.361Z,192
2016-05-30T04:16:33.379Z,212
2016-05-30T04:17:33.242Z,224
2016-05-30T04:18:33.259Z,236
2016-05-30T04:19:33.434Z,248
2016-05-30T04:20:33.469Z,256
2016-05-30T04:21:33.346Z,272
2016-05-30T04:22:34.474Z,292
2016-05-30T04:23:33.523Z,308
2016-05-30T04:24:33.557Z,328
2016-05-30T04:25:33.388Z,332
2016-05-30T04:26:33.577Z,340
2016-05-30T04:27:33.580Z,356
2016-05-30T04:28:33.443Z,352
2016-05-30T04:29:47.698Z,368
2016-05-30T04:30:33.651Z,388
2016-05-30T04:31:33.669Z,396
2016-05-30T04:32:33.688Z,408
2016-05-30T04:33:33.721Z,416
2016-05-30T04:34:47.648Z,428
2016-05-30T04:35:47.667Z,472
2016-05-30T04:36:33.495Z,492
2016-05-30T04:37:34.390Z,504
2016-05-30T04:38:33.813Z,508
2016-05-30T04:39:33.847Z,512
2016-05-30T04:40:33.850Z,520
2016-05-30T04:41:33.571Z,520
2016-05-30T04:42:33.730Z,528
2016-05-30T04:43:33.921Z,556
2016-05-30T04:44:33.939Z,604
2016-05-30T04:45:33.972Z,580
2016-05-30T04:46:33.992Z,604
2016-05-30T04:47:33.853Z,616
2016-05-30T04:48:34.012Z,640
2016-05-30T04:49:34.047Z,656
2016-05-30T04:50:34.049Z,672
2016-05-30T04:51:34.380Z,684
2016-05-30T04:52:34.414Z,716
2016-05-30T04:53:34.119Z,876
2016-05-30T04:54:34.122Z,856
2016-05-30T04:55:34.156Z,832
2016-05-30T04:56:34.174Z,836
2016-05-30T04:57:34.021Z,844
2016-05-30T04:58:33.914Z,844
2016-05-30T04:59:34.244Z,864
2016-05-30T05:00:34.263Z,904
2016-05-30T05:01:34.125Z,1024
2016-05-30T05:02:48.224Z,1172
2016-05-30T05:03:34.318Z,1188
2016-05-30T05:04:34.180Z,1200
2016-05-30T05:05:34.385Z,1192
2016-05-30T05:06:35.451Z,1308
2016-05-30T05:07:34.454Z,1388
2016-05-30T05:08:34.425Z,1532
2016-05-30T05:09:34.287Z,1496
2016-05-30T05:10:34.462Z,1476
2016-05-30T05:11:34.495Z,1616
2016-05-30T05:13:02.626Z,1948
2016-05-30T05:13:34.532Z,2060
2016-05-30T05:14:34.394Z,2092
2016-05-30T05:15:34.569Z,2120
2016-05-30T05:16:34.603Z,2048
2016-05-30T05:17:34.622Z,2032
2016-05-30T05:18:34.624Z,1896
2016-05-30T05:19:34.658Z,1724
2016-05-30T05:20:34.520Z,1628
2016-05-30T05:21:35.023Z,1700
2016-05-30T05:22:48.606Z,1804
2016-05-30T05:23:34.731Z,1780
2016-05-30T05:24:34.625Z,1640
2016-05-30T05:25:34.799Z,1604
2016-05-30T05:26:34.786Z,1520
2016-05-30T05:27:34.820Z,1432
2016-05-30T05:28:34.823Z,1456
2016-05-30T05:29:35.060Z,1580
2016-05-30T05:30:48.941Z,1624
2016-05-30T05:31:34.910Z,1620
2016-05-30T05:32:34.912Z,1528
2016-05-30T05:33:34.930Z,1500
2016-05-30T05:34:34.963Z,1676
2016-05-30T05:35:34.795Z,1740
2016-05-30T05:36:34.844Z,1788
2016-05-30T05:37:36.784Z,1956
2016-05-30T05:38:35.037Z,2184
2016-05-30T05:39:35.071Z,2204
2016-05-30T05:40:35.089Z,2196
2016-05-30T05:41:35.093Z,2368
2016-05-30T05:42:47.157Z,2940
2016-05-30T05:43:35.113Z,2828
2016-05-30T05:44:35.022Z,2744
2016-05-30T05:45:35.165Z,3184
2016-05-30T05:46:35.183Z,3232
2016-05-30T05:47:35.078Z,3188
2016-05-30T05:48:35.267Z,3132
2016-05-30T05:49:35.114Z,3180
2016-05-30T05:50:35.304Z,3164
2016-05-30T05:51:35.791Z,3092
2016-05-30T05:52:35.121Z,3112
2016-05-30T05:53:35.358Z,2800
2016-05-30T05:54:35.362Z,2324
2016-05-30T05:55:35.380Z,2064
2016-05-30T05:56:35.102Z,2148
2016-05-30T05:57:35.275Z,2148
2016-05-30T05:58:35.310Z,1992
2016-05-30T05:59:35.656Z,1840
2016-05-30T06:00:35.503Z,1812
2016-05-30T06:01:35.505Z,1832
2016-05-30T06:02:35.524Z,1904
2016-05-30T06:03:35.558Z,1900
2016-05-30T06:04:35.419Z,1836
2016-05-30T06:05:35.594Z,1748
2016-05-30T06:06:37.113Z,1696
2016-05-30T06:07:35.631Z,1704
2016-05-30T06:08:35.962Z,1628
2016-05-30T06:09:35.512Z,1572
2016-05-30T06:10:35.685Z,1684
2016-05-30T06:11:35.720Z,1788
2016-05-30T06:12:35.582Z,1828
2016-05-30T06:13:35.600Z,1916
2016-05-30T06:14:35.790Z,1888
2016-05-30T06:15:35.668Z,1828
2016-05-30T06:17:35.829Z,1788
2016-05-30T06:18:35.707Z,1876
2016-05-30T06:19:35.725Z,1912
2016-05-30T06:20:35.900Z,2072
2016-05-30T06:21:36.512Z,2272
2016-05-30T06:22:36.546Z,2500
2016-05-30T06:23:35.642Z,2604
2016-05-30T06:24:38.833Z,2740
2016-05-30T06:25:36.007Z,3160
2016-05-30T06:26:36.041Z,3528
2016-05-30T06:27:36.044Z,3772
2016-05-30T06:28:36.077Z,3952
2016-05-30T06:29:35.940Z,4116
2016-05-30T06:30:36.818Z,4236
2016-05-30T06:31:36.148Z,4280
2016-05-30T06:32:36.135Z,4284
2016-05-30T06:33:50.263Z,4132
2016-05-30T06:34:36.032Z,4016
2016-05-30T06:35:39.269Z,4240
2016-05-30T06:36:36.568Z,4864
2016-05-30T06:37:37.243Z,5304
2016-05-30T06:38:36.292Z,5204
2016-05-30T06:39:36.310Z,5112
2016-05-30T06:40:36.313Z,4996
2016-05-30T06:41:36.331Z,5036
2016-05-30T06:42:36.210Z,5248
2016-05-30T06:43:36.384Z,5224
2016-05-30T06:44:36.246Z,5316
2016-05-30T06:45:38.217Z,5504
2016-05-30T06:46:36.454Z,5208
2016-05-30T06:47:36.317Z,5404
2016-05-30T06:48:36.491Z,5748
2016-05-30T06:49:36.385Z,5824
2016-05-30T06:50:36.247Z,5896
2016-05-30T06:51:36.967Z,6068
2016-05-30T06:52:36.596Z,6128
2016-05-30T06:53:36.458Z,6128
2016-05-30T06:54:36.632Z,5968
2016-05-30T06:55:36.495Z,5832
2016-05-30T06:56:36.903Z,5576
2016-05-30T06:57:36.781Z,5460
2016-05-30T06:58:36.815Z,5424
2016-05-30T06:59:36.739Z,5168
2016-05-30T07:01:36.619Z,4924
2016-05-30T07:02:36.794Z,4932
2016-05-30T07:03:36.828Z,4804
2016-05-30T07:04:39.847Z,4612
2016-05-30T07:05:36.709Z,4584
2016-05-30T07:06:37.008Z,4520
2016-05-30T07:07:36.871Z,4324
2016-05-30T07:08:36.951Z,4200
2016-05-30T07:09:36.782Z,4180
2016-05-30T07:10:37.003Z,4164
2016-05-30T07:11:51.054Z,4296
2016-05-30T07:12:36.868Z,4384
2016-05-30T07:13:37.042Z,4456
2016-05-30T07:14:36.890Z,4400
2016-05-30T07:15:39.985Z,4472
2016-05-30T07:16:39.973Z,4572
2016-05-30T07:17:36.835Z,4696
2016-05-30T07:18:37.151Z,4868
2016-05-30T07:19:37.184Z,4904
2016-05-30T07:20:40.624Z,4704
2016-05-30T07:21:37.595Z,4416
2016-05-30T07:22:38.145Z,4204
2016-05-30T07:23:37.257Z,3980
2016-05-30T07:24:51.369Z,3748
2016-05-30T07:25:41.606Z,3692
2016-05-30T07:26:37.344Z,3708
2016-05-30T07:27:37.331Z,3756
2016-05-30T07:28:37.395Z,3804
2016-05-30T07:29:37.414Z,3920
2016-05-30T07:30:51.151Z,4060
2016-05-30T07:31:37.872Z,4172
2016-05-30T07:32:37.453Z,4244
2016-05-30T07:33:37.502Z,4100
2016-05-30T07:34:51.568Z,3596
2016-05-30T07:35:41.618Z,3108
2016-05-30T07:36:37.589Z,2408
2016-05-30T07:37:37.279Z,1712
2016-05-30T07:38:51.641Z,1312
2016-05-30T07:39:51.518Z,1284
2016-05-30T07:40:37.632Z,1376
2016-05-30T07:41:37.680Z,1508
2016-05-30T07:42:37.683Z,1444
2016-05-30T07:43:37.529Z,1232
2016-05-30T07:44:37.705Z,1212
2016-05-30T07:45:40.004Z,1336
2016-05-30T07:46:37.756Z,1460
2016-05-30T07:47:37.775Z,1612
2016-05-30T07:48:37.668Z,1740
2016-05-30T07:49:37.827Z,1816
2016-05-30T07:50:37.845Z,1820
2016-05-30T07:51:37.926Z,1644
2016-05-30T07:52:38.147Z,1436
2016-05-30T07:53:37.916Z,1332
2016-05-30T07:54:37.919Z,1388
2016-05-30T07:55:42.109Z,1536
2016-05-30T07:56:37.971Z,1572
2016-05-30T07:57:37.833Z,1636
2016-05-30T07:58:38.008Z,1660
2016-05-30T07:59:37.885Z,1624
2016-05-30T08:00:37.903Z,1568
2016-05-30T08:01:52.125Z,1460
2016-05-30T08:02:38.112Z,1376
2016-05-30T08:03:38.146Z,1300
2016-05-30T08:04:52.196Z,1252
2016-05-30T08:05:52.214Z,1288
2016-05-30T08:06:38.810Z,1332
2016-05-30T08:07:39.110Z,1376
2016-05-30T08:08:39.191Z,1456
2016-05-30T08:09:38.241Z,1548
2016-05-30T08:10:38.274Z,1636
2016-05-30T08:11:38.324Z,1692
2016-05-30T08:12:38.295Z,1732
2016-05-30T08:13:38.532Z,1780
2016-05-30T08:14:38.348Z,1848
2016-05-30T08:15:41.382Z,1900
2016-05-30T08:16:38.416Z,1964
2016-05-30T08:17:38.418Z,2024
2016-05-30T08:18:52.499Z,2060
2016-05-30T08:19:38.314Z,2088
2016-05-30T08:20:38.489Z,2148
2016-05-30T08:21:38.273Z,2232
2016-05-30T08:22:38.401Z,2344
2016-05-30T08:23:38.544Z,2396
2016-05-30T08:24:38.577Z,2372
2016-05-30T08:25:38.580Z,2320
2016-05-30T08:26:38.583Z,2264
2016-05-30T08:28:38.495Z,2152
2016-05-30T08:29:38.653Z,2172
2016-05-30T08:30:38.531Z,2260
2016-05-30T08:31:38.689Z,2456
2016-05-30T08:32:38.411Z,2724
2016-05-30T08:33:38.758Z,3096
2016-05-30T08:34:38.777Z,3636
2016-05-30T08:35:38.794Z,4376
2016-05-30T08:36:38.735Z,4912
2016-05-30T08:37:39.144Z,5220
2016-05-30T08:38:39.177Z,5656
2016-05-30T08:40:39.855Z,6952
2016-05-30T08:41:38.780Z,7660
2016-05-30T08:43:38.784Z,8536
2016-05-30T08:44:52.882Z,8456
2016-05-30T08:45:52.931Z,8136
2016-05-30T08:46:39.043Z,7896
2016-05-30T08:47:39.092Z,7580
2016-05-30T08:48:39.095Z,7312
2016-05-30T08:49:38.942Z,7304
2016-05-30T08:50:39.101Z,7524
2016-05-30T08:51:39.885Z,7912
2016-05-30T08:52:39.543Z,8324
2016-05-30T08:53:39.170Z,8596
2016-05-30T08:54:39.205Z,8740
2016-05-30T08:55:39.223Z,8952
2016-05-30T08:56:39.086Z,9140
2016-05-30T08:57:39.120Z,8828
2016-05-30T08:58:38.982Z,8888
2016-05-30T08:59:39.312Z,9184
2016-05-30T09:00:39.330Z,9108
2016-05-30T09:01:39.333Z,9180
2016-05-30T09:02:39.211Z,9200
2016-05-30T09:03:39.401Z,8932
2016-05-30T09:04:39.123Z,8800
2016-05-30T09:05:39.469Z,8468
2016-05-30T09:06:39.300Z,8212
2016-05-30T09:07:39.411Z,7824
2016-05-30T09:08:39.509Z,7460
2016-05-30T09:09:39.542Z,7428
2016-05-30T09:10:39.544Z,7400
2016-05-30T09:11:39.579Z,7252
2016-05-30T09:12:39.457Z,7004
2016-05-30T09:13:39.616Z,6848
2016-05-30T09:14:39.634Z,6572
2016-05-30T09:15:39.480Z,6344
2016-05-30T09:16:39.685Z,6300
2016-05-30T09:17:39.532Z,6332
2016-05-30T09:18:39.738Z,6312
2016-05-30T09:19:39.585Z,6360
2016-05-30T09:20:39.760Z,6176
2016-05-30T09:21:40.262Z,5812
2016-05-30T09:22:40.296Z,5464
2016-05-30T09:23:39.829Z,5048
2016-05-30T09:24:39.692Z,4652
2016-05-30T09:25:39.929Z,4284
2016-05-30T09:26:39.901Z,3988
2016-05-30T09:27:39.778Z,3756
2016-05-30T09:28:39.952Z,3520
2016-05-30T09:29:39.956Z,3236
2016-05-30T09:30:39.989Z,2904
2016-05-30T09:31:40.023Z,2588
2016-05-30T09:32:40.042Z,2388
2016-05-30T09:33:40.061Z,2276
2016-05-30T09:34:40.078Z,2176
2016-05-30T09:35:40.097Z,2076
2016-05-30T09:36:40.568Z,2008
2016-05-30T09:37:40.806Z,1988
2016-05-30T09:38:54.230Z,2032
2016-05-30T09:39:40.185Z,2088
2016-05-30T09:40:40.047Z,2240
2016-05-30T09:41:40.238Z,2468
2016-05-30T09:42:40.240Z,2704
2016-05-30T09:43:40.275Z,2912
2016-05-30T09:44:40.293Z,3120
2016-05-30T09:45:40.310Z,3324
2016-05-30T09:46:40.377Z,3544
2016-05-30T09:47:40.207Z,3756
2016-05-30T09:48:40.381Z,4008
2016-05-30T09:49:40.244Z,4424
2016-05-30T09:50:40.418Z,4940
2016-05-30T09:51:40.171Z,5468
2016-05-30T09:52:41.267Z,6236
2016-05-30T09:53:40.192Z,7028
2016-05-30T09:54:40.506Z,7808
2016-05-30T09:55:40.556Z,8436
2016-05-30T09:56:40.543Z,8860
2016-05-30T09:57:40.437Z,9012
2016-05-30T09:58:40.455Z,8752
2016-05-30T09:59:40.614Z,8184
2016-05-30T10:00:40.492Z,8188
2016-05-30T10:01:40.370Z,9180
2016-05-30T10:02:40.684Z,10932
2016-05-30T10:03:40.719Z,12652
2016-05-30T10:04:40.737Z,13252
2016-05-30T10:05:40.740Z,13024
2016-05-30T10:06:40.789Z,12472
2016-05-30T10:07:40.777Z,11876
2016-05-30T10:08:40.655Z,11224
2016-05-30T10:09:40.845Z,11692
2016-05-30T10:10:40.878Z,11360
2016-05-30T10:11:40.897Z,10320
2016-05-30T10:12:40.947Z,9684
2016-05-30T10:13:40.793Z,9292
2016-05-30T10:14:40.796Z,8740
2016-05-30T10:15:40.970Z,8308
2016-05-30T10:16:40.988Z,8176
2016-05-30T10:17:41.038Z,7584
2016-05-30T10:18:40.884Z,6856
2016-05-30T10:19:41.090Z,6612
2016-05-30T10:20:40.937Z,7720
2016-05-30T10:21:41.439Z,8880
2016-05-30T10:22:41.926Z,8112
2016-05-30T10:23:41.163Z,6868
2016-05-30T10:24:41.229Z,5888
2016-05-30T10:25:41.309Z,4988
2016-05-30T10:26:41.234Z,4268
2016-05-30T10:27:41.096Z,3924
2016-05-30T10:28:41.286Z,4136
2016-05-30T10:29:41.132Z,4272
2016-05-30T10:30:41.182Z,4168
2016-05-30T10:31:41.325Z,3788
2016-05-30T10:32:41.359Z,3524
2016-05-30T10:33:41.393Z,3276
2016-05-30T10:34:41.427Z,2944
2016-05-30T10:35:41.305Z,2736
2016-05-30T10:36:41.464Z,2800
2016-05-30T10:37:41.608Z,3148
2016-05-30T10:38:41.531Z,3564
2016-05-30T10:39:41.519Z,3832
2016-05-30T10:40:41.552Z,3888
2016-05-30T10:41:41.572Z,3776
2016-05-30T10:42:41.589Z,3492
2016-05-30T10:43:41.483Z,3176
2016-05-30T10:44:41.627Z,3004
2016-05-30T10:45:41.644Z,3024
2016-05-30T10:46:41.552Z,3040
2016-05-30T10:47:41.697Z,2976
2016-05-30T10:48:41.730Z,3124
2016-05-30T10:49:41.764Z,3732
2016-05-30T10:50:41.454Z,4552
2016-05-30T10:51:41.817Z,5044
2016-05-30T10:52:43.116Z,4932
2016-05-30T10:53:41.682Z,4448
2016-05-30T10:54:41.700Z,4240
2016-05-30T10:55:41.734Z,4132
2016-05-30T10:56:41.893Z,3792
2016-05-30T10:57:41.943Z,3672
2016-05-30T10:58:41.976Z,3804
2016-05-30T10:59:41.838Z,4208
2016-05-30T11:00:41.700Z,5024
2016-05-30T11:01:42.031Z,5484
2016-05-30T11:02:41.893Z,5428
2016-05-30T11:03:42.052Z,5400
2016-05-30T11:04:42.086Z,5456
2016-05-30T11:05:42.120Z,5240
2016-05-30T11:06:42.185Z,4824
2016-05-30T11:07:42.313Z,4572
2016-05-30T11:08:42.003Z,4184
2016-05-30T11:09:42.036Z,3772
2016-05-30T11:10:42.055Z,3384
2016-05-30T11:11:42.245Z,3484
2016-05-30T11:12:42.248Z,4208
2016-05-30T11:13:42.282Z,4356
2016-05-30T11:14:42.300Z,3596
2016-05-30T11:15:42.319Z,2936
2016-05-30T11:16:42.352Z,2624
2016-05-30T11:17:42.386Z,2544
2016-05-30T11:18:42.405Z,2568
2016-05-30T11:19:42.424Z,2372
2016-05-30T11:20:42.269Z,2148
2016-05-30T11:21:43.382Z,2156
2016-05-30T11:22:42.635Z,2404
2016-05-30T11:23:42.528Z,2500
2016-05-30T11:24:42.359Z,2512
2016-05-30T11:25:42.252Z,2700
2016-05-30T11:26:42.567Z,2844
2016-05-30T11:27:42.601Z,2868
2016-05-30T11:28:42.619Z,3412
2016-05-30T11:29:42.638Z,4868
2016-05-30T11:30:42.656Z,6492
2016-05-30T11:31:42.690Z,7464
2016-05-30T11:32:42.551Z,7668
2016-05-30T11:33:42.711Z,6496
2016-05-30T11:34:42.761Z,5044
2016-05-30T11:35:42.764Z,4696
2016-05-30T11:36:43.156Z,5044
2016-05-30T11:37:43.300Z,5880
2016-05-30T11:38:42.849Z,6916
2016-05-30T11:39:42.853Z,7020
2016-05-30T11:40:42.730Z,6048
2016-05-30T11:41:42.904Z,5624
2016-05-30T11:42:42.922Z,6100
2016-05-30T11:43:42.769Z,6460
2016-05-30T11:44:42.834Z,5768
2016-05-30T11:45:43.023Z,5348
2016-05-30T11:46:42.875Z,5136
2016-05-30T11:47:42.945Z,5320
2016-05-30T11:48:43.125Z,6052
2016-05-30T11:49:43.162Z,6704
2016-05-30T11:50:43.192Z,5988
2016-05-30T11:51:43.405Z,5000
2016-05-30T11:52:43.306Z,5308
2016-05-30T11:53:43.144Z,5136
2016-05-30T11:54:43.169Z,4824
2016-05-30T11:55:43.347Z,5704
2016-05-30T11:56:43.368Z,6600
2016-05-30T11:57:43.264Z,7296
2016-05-30T11:58:43.426Z,8492
2016-05-30T11:59:43.479Z,8900
2016-05-30T12:00:43.358Z,9480
2016-05-30T12:01:43.393Z,9704
2016-05-30T12:02:43.506Z,9004
2016-05-30T12:03:43.588Z,8148
2016-05-30T12:04:43.482Z,6856
2016-05-30T12:05:43.658Z,5784
2016-05-30T12:06:44.770Z,6152
2016-05-30T12:07:43.336Z,6996
2016-05-30T12:08:43.698Z,7020
2016-05-30T12:09:43.670Z,6148
2016-05-30T12:10:43.720Z,4852
2016-05-30T12:11:43.613Z,4288
2016-05-30T12:12:43.756Z,4684
2016-05-30T12:13:43.587Z,4664
2016-05-30T12:14:43.792Z,5012
2016-05-30T12:15:43.811Z,5756
2016-05-30T12:16:43.689Z,5584
2016-05-30T12:17:43.864Z,6444
2016-05-30T12:18:57.945Z,8848
2016-05-30T12:19:43.916Z,10360
2016-05-30T12:20:43.919Z,9600
2016-05-30T12:21:43.968Z,9800
2016-05-30T12:22:44.189Z,8072
2016-05-30T12:23:43.989Z,7344
2016-05-30T12:24:44.023Z,7840
2016-05-30T12:25:44.057Z,9392
2016-05-30T12:26:44.060Z,11952
2016-05-30T12:27:44.094Z,11640
2016-05-30T12:28:44.096Z,13224
2016-05-30T12:29:44.130Z,12956
2016-05-30T12:30:44.008Z,15028
2016-05-30T12:31:44.183Z,13724
2016-05-30T12:32:44.201Z,11372
2016-05-30T12:33:44.079Z,12748
2016-05-30T12:34:44.252Z,14284
2016-05-30T12:35:44.115Z,14140
2016-05-30T12:36:44.399Z,11016
2016-05-30T12:37:44.199Z,10416
2016-05-30T12:38:44.342Z,12360
2016-05-30T12:39:44.063Z,12044
2016-05-30T12:40:58.473Z,12480
2016-05-30T12:41:44.256Z,10468
2016-05-30T12:42:44.446Z,9040
2016-05-30T12:43:44.496Z,8696
2016-05-30T12:44:44.499Z,10732
2016-05-30T12:45:44.517Z,12432
2016-05-30T12:46:44.535Z,13268
2016-05-30T12:47:44.241Z,12716
2016-05-30T12:48:44.635Z,12232
2016-05-30T12:49:44.622Z,12244
2016-05-30T12:50:44.531Z,12352
2016-05-30T12:51:44.752Z,12392
2016-05-30T12:52:44.598Z,12380
2016-05-30T12:53:44.586Z,11900
2016-05-30T12:54:44.572Z,12572
2016-05-30T12:55:44.747Z,12348
2016-05-30T12:56:44.625Z,11940
2016-05-30T12:57:44.644Z,12012
2016-05-30T12:58:44.817Z,12000
2016-05-30T12:59:44.867Z,10324
2016-05-30T13:00:44.885Z,11600
2016-05-30T13:01:44.810Z,11244
2016-05-30T13:02:44.907Z,11244
2016-05-30T13:03:44.955Z,11128
2016-05-30T13:04:44.958Z,11020
2016-05-30T13:05:44.852Z,11112
2016-05-30T13:06:45.058Z,10888
2016-05-30T13:07:45.796Z,10892
2016-05-30T13:08:45.063Z,10776
2016-05-30T13:09:45.082Z,10804
2016-05-30T13:10:45.132Z,10996
2016-05-30T13:11:45.149Z,11152
2016-05-30T13:12:45.168Z,11140
2016-05-30T13:13:45.201Z,11692
2016-05-30T13:14:45.220Z,11736
2016-05-30T13:15:45.254Z,11812
2016-05-30T13:16:45.272Z,11760
2016-05-30T13:17:48.306Z,11544
2016-05-30T13:18:45.309Z,11332
2016-05-30T13:19:45.342Z,11556
2016-05-30T13:20:45.376Z,11156
2016-05-30T13:21:45.239Z,11364
2016-05-30T13:22:45.695Z,11220
2016-05-30T13:23:45.431Z,11376
2016-05-30T13:24:45.497Z,11312
2016-05-30T13:25:45.484Z,11244
2016-05-30T13:26:45.502Z,11532
2016-05-30T13:27:45.380Z,11680
2016-05-30T13:28:45.414Z,10476
2016-05-30T13:29:45.447Z,11328
2016-05-30T13:30:45.607Z,9632
2016-05-30T13:31:45.641Z,12096
2016-05-30T13:32:45.502Z,12516
2016-05-30T13:33:45.537Z,12700
2016-05-30T13:34:45.899Z,12612
2016-05-30T13:35:45.729Z,12204
2016-05-30T13:36:45.999Z,11952
2016-05-30T13:37:46.469Z,11860
2016-05-30T13:38:45.816Z,11612
2016-05-30T13:39:45.850Z,11512
2016-05-30T13:40:45.884Z,11340
2016-05-30T13:41:45.762Z,11412
2016-05-30T13:42:45.921Z,7088
2016-05-30T13:43:45.938Z,11516
2016-05-30T13:44:45.973Z,9920
2016-05-30T13:45:45.976Z,11568
2016-05-30T13:46:46.040Z,11464
2016-05-30T13:47:46.043Z,11404
2016-05-30T13:48:46.108Z,11460
2016-05-30T13:49:45.955Z,11656